Time;durP1;ratioP1;P1;durP2;ratioP2;P2;SDS_P1;SDS_P2;PMS_P1;PMS_P2;Temp;Humidity;BMP_temperature;BMP_pressure;BME280_temperature;BME280_humidity;BME280_pressure;Samples;Min_cycle;Max_cycle;Signal;HPM_P1;HPM_P2
2023/01/21 00:03:07;;;;;;;40.57;26.03;;;-2.10;99.90;;;;;;2613175;54;20402;-72
2023/01/21 00:08:58;;;;;;;38.80;24.00;;;-2.10;99.90;;;;;;2615207;54;20423;-72
2023/01/21 00:14:45;;;;;;;39.90;23.83;;;-1.90;99.90;;;;;;2614121;39;21039;-71
2023/01/21 00:20:33;;;;;;;46.30;27.00;;;-2.30;99.90;;;;;;2613843;54;20130;-71
2023/01/21 00:26:21;;;;;;;44.53;26.47;;;-2.50;99.90;;;;;;2614051;54;20443;-69
2023/01/21 00:29:34;;;;;;;43.83;26.60;;;-2.60;99.90;;;;;;2612917;39;20850;-71
2023/01/21 00:32:00;;;;;;;46.73;26.70;;;-2.60;99.90;;;;;;2614944;40;20508;-72
2023/01/21 00:37:50;;;;;;;39.53;25.10;;;-2.70;99.90;;;;;;2615637;54;20123;-72
2023/01/21 00:43:39;;;;;;;44.07;27.73;;;-2.80;99.90;;;;;;2612302;54;20512;-72
2023/01/21 00:49:27;;;;;;;40.47;25.20;;;-2.90;99.90;;;;;;2613879;54;20390;-72
2023/01/21 00:55:15;;;;;;;41.20;26.73;;;-2.90;99.90;;;;;;2612536;54;20166;-72
2023/01/21 01:01:13;;;;;;;47.90;27.50;;;-2.90;99.90;;;;;;2612684;54;20203;-71
2023/01/21 01:07:00;;;;;;;39.20;24.23;;;-2.60;99.90;;;;;;2614111;54;20448;-70
2023/01/21 01:12:48;;;;;;;42.57;24.57;;;-2.40;99.90;;;;;;2611460;54;20131;-71
2023/01/21 01:18:36;;;;;;;38.03;23.97;;;-2.40;99.90;;;;;;2612548;54;20263;-70
2023/01/21 01:24:24;;;;;;;46.20;25.40;;;-2.50;99.90;;;;;;2611971;54;20403;-72
2023/01/21 01:34:07;;;;;;;50.20;28.93;;;-2.30;99.90;;;;;;2611530;54;20378;-70
2023/01/21 01:39:55;;;;;;;41.03;27.40;;;-2.20;99.90;;;;;;2611959;54;20410;-72
2023/01/21 01:45:43;;;;;;;43.90;25.47;;;-2.20;99.90;;;;;;2611934;54;20135;-70
2023/01/21 01:58:21;;;;;;;43.47;27.57;;;-2.40;99.90;;;;;;2611063;54;20383;-71
2023/01/21 02:04:13;;;;;;;43.50;24.37;;;-2.40;99.90;;;;;;2611095;54;20416;-71
2023/01/21 02:10:01;;;;;;;44.50;25.77;;;-2.50;99.90;;;;;;2610025;54;20482;-70
2023/01/21 02:22:36;;;;;;;43.43;25.63;;;-2.20;99.90;;;;;;2611988;54;20378;-70
2023/01/21 02:28:44;;;;;;;50.53;25.50;;;-2.30;99.90;;;;;;2610178;54;20405;-71
2023/01/21 02:34:37;;;;;;;44.00;28.57;;;-2.40;99.90;;;;;;2613178;54;20465;-71
2023/01/21 02:37:41;;;;;;;48.00;27.80;;;-2.50;99.90;;;;;;2613712;54;20410;-71
2023/01/21 02:56:24;;;;;;;48.73;27.80;;;-2.60;99.90;;;;;;2611549;54;20408;-70
2023/01/21 03:02:18;;;;;;;37.20;23.43;;;-2.60;99.90;;;;;;2611123;54;20432;-71
2023/01/21 03:25:39;;;;;;;38.83;24.00;;;-3.20;99.90;;;;;;2612121;54;20366;-70
2023/01/21 03:31:30;;;;;;;46.97;24.30;;;-3.30;99.90;;;;;;2611155;54;20415;-71
2023/01/21 03:37:55;;;;;;;40.90;26.07;;;-3.50;99.90;;;;;;2613978;39;20854;-71
2023/01/21 03:47:33;;;;;;;43.73;23.77;;;-3.50;99.90;;;;;;2611598;54;20408;-71
2023/01/21 03:53:21;;;;;;;38.43;24.70;;;-3.60;99.90;;;;;;2611504;54;20403;-69
2023/01/21 03:59:09;;;;;;;41.07;25.13;;;-3.40;99.90;;;;;;2609954;54;20427;-69
2023/01/21 04:04:57;;;;;;;43.27;23.93;;;-3.30;99.90;;;;;;2611662;54;20131;-68
2023/01/21 04:10:45;;;;;;;42.40;26.27;;;-3.20;99.90;;;;;;2608552;54;20179;-68
2023/01/21 04:16:32;;;;;;;45.47;26.80;;;-3.10;99.90;;;;;;2609787;54;20138;-68
2023/01/21 04:22:20;;;;;;;47.93;26.07;;;-3.30;99.90;;;;;;2613015;54;20151;-69
2023/01/21 04:28:08;;;;;;;47.63;27.67;;;-3.50;99.90;;;;;;2610240;39;21681;-68
2023/01/21 04:33:56;;;;;;;43.60;26.83;;;-3.60;99.90;;;;;;2611403;54;20148;-67
2023/01/21 04:43:05;;;;;;;41.63;25.47;;;-3.50;99.90;;;;;;2610100;54;20554;-72
2023/01/21 04:48:53;;;;;;;48.13;28.07;;;-3.90;99.90;;;;;;2610871;54;20230;-68
2023/01/21 04:54:40;;;;;;;50.60;28.83;;;-3.70;99.90;;;;;;2609929;54;20757;-67
2023/01/21 05:00:28;;;;;;;42.23;26.97;;;-3.50;99.90;;;;;;2610444;54;20138;-70
2023/01/21 05:03:32;;;;;;;47.30;27.53;;;-3.60;99.90;;;;;;2609196;54;20434;-70
2023/01/21 05:05:57;;;;;;;43.03;27.33;;;-3.70;99.90;;;;;;2612124;54;20496;-70
2023/01/21 05:11:45;;;;;;;38.93;25.53;;;-3.70;99.90;;;;;;2608633;54;20155;-69
2023/01/21 05:17:33;;;;;;;48.67;27.30;;;-3.90;99.90;;;;;;2610588;54;20166;-68
2023/01/21 05:23:21;;;;;;;47.80;24.53;;;-4.20;99.90;;;;;;2611809;54;20154;-69
2023/01/21 05:29:09;;;;;;;40.60;24.97;;;-4.20;99.90;;;;;;2608901;54;20159;-68
2023/01/21 05:34:57;;;;;;;46.27;26.97;;;-4.40;99.90;;;;;;2612133;54;20403;-70
2023/01/21 05:40:45;;;;;;;43.90;27.40;;;-4.70;99.90;;;;;;2610235;54;20306;-68
2023/01/21 05:46:32;;;;;;;41.60;26.67;;;-4.70;99.90;;;;;;2610367;54;20119;-69
2023/01/21 05:52:20;;;;;;;42.33;23.07;;;-4.70;99.90;;;;;;2612299;54;20175;-69
2023/01/21 05:58:08;;;;;;;43.27;24.83;;;-4.80;99.90;;;;;;2612780;54;20138;-69
2023/01/21 06:03:56;;;;;;;52.87;26.63;;;-4.70;99.90;;;;;;2609757;54;20135;-68
2023/01/21 06:09:44;;;;;;;41.13;26.30;;;-4.60;99.90;;;;;;2612637;54;20154;-70
2023/01/21 06:15:34;;;;;;;52.43;28.10;;;-4.50;99.90;;;;;;2611448;46;20154;-68
2023/01/21 06:21:22;;;;;;;49.87;25.97;;;-4.50;99.90;;;;;;2611954;54;20366;-68
2023/01/21 06:27:11;;;;;;;44.37;24.20;;;-4.40;99.90;;;;;;2613068;54;21099;-69
2023/01/21 06:32:58;;;;;;;45.47;28.10;;;-4.40;99.90;;;;;;2610686;46;20527;-68
2023/01/21 06:45:30;;;;;;;51.50;28.03;;;-3.80;99.90;;;;;;2611053;54;20529;-68
2023/01/21 06:51:17;;;;;;;51.73;27.40;;;-3.70;99.90;;;;;;2612042;54;20668;-67
2023/01/21 06:57:05;;;;;;;45.37;26.63;;;-3.70;99.90;;;;;;2613244;54;20144;-69
2023/01/21 07:02:57;;;;;;;37.50;25.03;;;-3.70;99.90;;;;;;2609477;54;20129;-72
2023/01/21 07:08:44;;;;;;;45.03;27.87;;;-3.50;99.90;;;;;;2612021;54;20395;-68
2023/01/21 07:14:32;;;;;;;57.63;30.33;;;-3.20;99.90;;;;;;2612880;54;20161;-68
2023/01/21 07:20:21;;;;;;;51.80;29.00;;;-3.00;99.90;;;;;;2609857;54;20138;-69
2023/01/21 07:26:09;;;;;;;56.20;34.27;;;-2.90;99.90;;;;;;2611002;54;20412;-69
2023/01/21 07:31:56;;;;;;;53.40;28.90;;;-2.80;99.90;;;;;;2609977;54;20151;-68
2023/01/21 07:37:44;;;;;;;60.10;31.67;;;-2.70;99.90;;;;;;2609744;54;20657;-68
2023/01/21 07:43:32;;;;;;;66.13;36.13;;;-2.60;99.90;;;;;;2610694;54;20186;-68
2023/01/21 07:49:20;;;;;;;66.90;35.73;;;-2.40;99.90;;;;;;2607820;54;20267;-69
2023/01/21 07:55:08;;;;;;;71.60;37.83;;;-2.30;99.90;;;;;;2609942;54;20138;-68
2023/01/21 08:00:56;;;;;;;76.10;38.30;;;-2.10;99.90;;;;;;2612048;54;20423;-68
2023/01/21 08:06:44;;;;;;;70.40;39.13;;;-2.00;99.90;;;;;;2613148;54;20134;-69
2023/01/21 08:12:32;;;;;;;82.50;39.27;;;-1.80;99.90;;;;;;2613422;54;20147;-69
2023/01/21 08:18:21;;;;;;;83.43;39.53;;;-1.60;99.90;;;;;;2613703;54;20146;-69
2023/01/21 08:24:09;;;;;;;83.67;41.93;;;-1.50;99.90;;;;;;2612906;54;20383;-68
2023/01/21 08:29:56;;;;;;;86.03;42.40;;;-1.30;99.90;;;;;;2613354;54;20406;-68
2023/01/21 08:35:44;;;;;;;70.60;38.37;;;-1.30;99.90;;;;;;2613297;54;20142;-69
2023/01/21 08:41:32;;;;;;;77.47;39.13;;;-1.10;99.90;;;;;;2613418;54;20161;-68
2023/01/21 08:47:20;;;;;;;73.23;39.60;;;-1.00;99.90;;;;;;2612160;46;20327;-67
2023/01/21 08:50:44;;;;;;;86.30;42.00;;;-0.90;99.90;;;;;;2613002;54;20410;-69
2023/01/21 08:56:32;;;;;;;83.80;44.00;;;-0.80;99.90;;;;;;2613623;54;20383;-67
2023/01/21 09:02:20;;;;;;;89.10;44.57;;;-0.80;99.90;;;;;;2610699;54;20130;-68
2023/01/21 09:08:07;;;;;;;87.93;44.47;;;-0.70;99.90;;;;;;2611382;54;20138;-69
2023/01/21 09:13:59;;;;;;;76.63;40.23;;;-0.60;99.90;;;;;;2612699;54;20158;-68
2023/01/21 09:19:47;;;;;;;86.37;42.60;;;-0.50;99.90;;;;;;2610510;54;20406;-68
2023/01/21 09:25:35;;;;;;;90.27;43.27;;;-0.40;99.90;;;;;;2613043;54;20403;-68
2023/01/21 09:31:24;;;;;;;63.90;39.93;;;-0.30;99.90;;;;;;2611374;54;20121;-69
2023/01/21 09:37:12;;;;;;;83.27;40.57;;;-0.30;99.90;;;;;;2608629;54;20502;-69
2023/01/21 09:45:56;;;;;;;79.07;43.40;;;0.00;99.90;;;;;;2609672;54;20415;-67
2023/01/21 09:52:21;;;;;;;86.60;43.30;;;0.10;99.90;;;;;;2611636;46;20426;-69
2023/01/21 10:30:53;;;;;;;83.60;39.60;;;0.50;99.90;;;;;;2611876;39;20448;-69
2023/01/21 10:36:40;;;;;;;81.30;41.40;;;0.60;99.90;;;;;;2611553;54;20453;-70
2023/01/21 10:59:17;;;;;;;73.07;33.80;;;0.80;99.90;;;;;;2609192;54;20387;-69
2023/01/21 11:05:04;;;;;;;71.60;34.33;;;1.00;99.90;;;;;;2610750;54;20496;-69
2023/01/21 11:10:56;;;;;;;72.97;35.20;;;1.10;99.90;;;;;;2610640;54;20371;-69
2023/01/21 11:16:48;;;;;;;71.93;36.40;;;1.10;99.90;;;;;;2610359;54;21029;-69
2023/01/21 11:26:06;;;;;;;68.83;34.27;;;1.20;99.90;;;;;;2612731;54;20390;-69
2023/01/21 11:32:18;;;;;;;57.87;33.50;;;1.40;99.90;;;;;;2611393;54;21005;-69
2023/01/21 11:38:06;;;;;;;56.83;30.37;;;1.40;99.90;;;;;;2611578;46;20439;-71
2023/01/21 11:47:45;;;;;;;64.97;34.00;;;1.50;99.90;;;;;;2612720;54;20418;-70
2023/01/21 11:50:16;;;;;;;51.60;28.20;;;1.50;99.90;;;;;;2611666;54;20432;-69
2023/01/21 11:56:05;;;;;;;54.57;28.80;;;1.60;99.90;;;;;;2611388;54;20401;-69
2023/01/21 12:05:38;;;;;;;44.03;25.43;;;1.70;99.90;;;;;;2611767;54;20409;-70
2023/01/21 12:11:28;;;;;;;44.77;26.53;;;1.80;99.90;;;;;;2610061;54;20412;-68
2023/01/21 12:17:21;;;;;;;43.43;25.30;;;1.80;99.90;;;;;;2608430;54;20388;-72
2023/01/21 12:27:08;;;;;;;38.00;23.57;;;1.90;99.90;;;;;;2610984;54;20555;-68
2023/01/21 12:33:02;;;;;;;29.43;20.30;;;1.90;99.90;;;;;;2612470;54;20459;-69
2023/01/21 12:49:49;;;;;;;32.70;20.50;;;1.90;99.90;;;;;;2608399;54;20955;-68
2023/01/21 13:11:58;;;;;;;32.60;22.40;;;1.90;99.90;;;;;;2612041;39;20806;-71
2023/01/21 13:17:55;;;;;;;35.17;20.20;;;2.00;99.90;;;;;;2610815;54;20496;-70
2023/01/21 13:37:04;;;;;;;34.30;20.90;;;2.00;99.90;;;;;;2613736;46;20851;-68
2023/01/21 13:49:32;;;;;;;39.20;21.50;;;2.00;99.90;;;;;;2612556;39;20839;-70
2023/01/21 13:59:01;;;;;;;29.97;20.63;;;2.10;99.90;;;;;;2610328;54;20411;-69
2023/01/21 14:05:01;;;;;;;30.80;21.97;;;2.30;99.90;;;;;;2611568;54;20448;-68
2023/01/21 14:10:53;;;;;;;29.60;20.30;;;2.20;99.90;;;;;;2609667;54;20374;-70
2023/01/21 14:42:59;;;;;;;27.83;20.60;;;1.80;99.90;;;;;;2611549;54;20391;-70
2023/01/21 14:49:08;;;;;;;25.63;19.10;;;1.80;99.90;;;;;;2612037;54;20370;-72
2023/01/21 14:59:04;;;;;;;25.80;17.93;;;1.80;99.90;;;;;;2612732;54;20404;-68
2023/01/21 15:11:39;;;;;;;21.47;15.50;;;1.90;99.90;;;;;;2613021;54;20370;-69
2023/01/21 15:17:52;;;;;;;21.50;17.70;;;1.80;99.90;;;;;;2612916;54;20395;-70
2023/01/21 15:23:39;;;;;;;25.70;16.87;;;1.80;99.90;;;;;;2612334;39;20857;-69
2023/01/21 15:29:33;;;;;;;30.00;17.60;;;1.80;99.90;;;;;;2612678;54;20129;-68
2023/01/21 15:59:07;;;;;;;26.60;15.07;;;1.60;99.90;;;;;;2612026;54;20387;-70
2023/01/21 16:04:55;;;;;;;20.13;14.80;;;1.50;99.90;;;;;;2612912;54;20349;-70
2023/01/21 16:23:42;;;;;;;16.63;13.43;;;1.50;99.90;;;;;;2611360;54;20402;-69
2023/01/21 16:29:37;;;;;;;19.70;15.20;;;1.60;99.90;;;;;;2611347;39;21269;-69
2023/01/21 16:35:25;;;;;;;20.70;13.80;;;1.50;99.90;;;;;;2609898;54;20927;-69
2023/01/21 16:41:12;;;;;;;18.90;14.13;;;1.50;99.90;;;;;;2609840;54;21052;-71
2023/01/21 16:47:01;;;;;;;18.73;13.90;;;1.20;99.90;;;;;;2611338;54;20167;-70
2023/01/21 16:52:50;;;;;;;23.83;15.23;;;1.10;99.90;;;;;;2610858;46;20418;-70
2023/01/21 17:02:00;;;;;;;23.43;15.13;;;0.70;99.90;;;;;;2611632;54;20438;-70
2023/01/21 17:07:53;;;;;;;21.40;15.87;;;0.70;99.90;;;;;;2612142;39;20763;-70
2023/01/21 17:13:42;;;;;;;23.20;16.17;;;0.60;99.90;;;;;;2611205;54;20843;-70
2023/01/21 17:32:04;;;;;;;26.40;18.07;;;0.50;99.90;;;;;;2611740;54;20342;-73
2023/01/21 17:37:58;;;;;;;31.00;19.17;;;0.40;99.90;;;;;;2612223;54;20346;-69
2023/01/21 17:43:48;;;;;;;32.30;19.67;;;0.50;99.90;;;;;;2611952;31;20861;-70
2023/01/21 17:49:35;;;;;;;26.13;17.47;;;0.60;99.90;;;;;;2611025;54;20396;-69
2023/01/21 17:55:33;;;;;;;27.83;19.80;;;0.50;99.90;;;;;;2610797;54;21173;-68
2023/01/21 18:04:43;;;;;;;28.73;19.60;;;0.50;99.90;;;;;;2612778;54;20956;-69
2023/01/21 18:10:31;;;;;;;31.47;21.60;;;0.60;99.90;;;;;;2611578;39;20752;-69
2023/01/21 18:16:18;;;;;;;28.30;19.73;;;0.60;99.90;;;;;;2612912;54;20134;-69
2023/01/21 18:28:42;;;;;;;30.80;21.97;;;0.70;99.90;;;;;;2612348;54;20415;-68
2023/01/21 18:34:30;;;;;;;33.47;20.60;;;0.70;99.90;;;;;;2613389;39;20697;-70
2023/01/21 18:40:21;;;;;;;27.63;19.23;;;0.70;99.90;;;;;;2611866;54;20440;-70
2023/01/21 18:46:13;;;;;;;30.30;21.20;;;0.70;99.90;;;;;;2613156;31;20873;-70
2023/01/21 18:52:00;;;;;;;28.00;18.27;;;0.80;99.90;;;;;;2613116;54;20431;-71
2023/01/21 18:57:49;;;;;;;32.40;20.90;;;0.80;99.90;;;;;;2611988;54;20130;-69
2023/01/21 19:03:37;;;;;;;27.77;20.00;;;0.80;99.90;;;;;;2613137;54;20518;-70
2023/01/21 19:09:25;;;;;;;32.53;22.00;;;0.80;99.90;;;;;;2612821;46;20142;-71
2023/01/21 19:15:18;;;;;;;31.80;20.20;;;0.80;99.90;;;;;;2612638;54;20167;-68
2023/01/21 19:21:07;;;;;;;32.90;20.30;;;0.80;99.90;;;;;;2612632;54;20957;-69
2023/01/21 19:26:54;;;;;;;41.30;24.13;;;0.70;99.90;;;;;;2612843;39;20767;-68
2023/01/21 19:32:42;;;;;;;42.03;28.70;;;0.60;99.90;;;;;;2612854;54;20130;-73
2023/01/21 19:38:30;;;;;;;31.97;21.10;;;0.70;99.90;;;;;;2613252;39;20559;-71
2023/01/21 19:44:18;;;;;;;34.80;21.43;;;0.70;99.90;;;;;;2613263;54;20222;-70
2023/01/21 19:50:11;;;;;;;31.50;20.43;;;0.70;99.90;;;;;;2613637;54;20955;-69
2023/01/21 19:56:00;;;;;;;40.57;24.27;;;0.70;99.90;;;;;;2613415;54;20848;-69
2023/01/21 20:05:09;;;;;;;37.33;23.40;;;0.70;99.90;;;;;;2612662;54;20398;-69
2023/01/21 20:10:59;;;;;;;37.33;24.10;;;0.80;99.90;;;;;;2612693;54;20673;-69
2023/01/21 20:16:52;;;;;;;44.93;23.57;;;0.80;99.90;;;;;;2611436;39;20770;-71
2023/01/21 20:22:39;;;;;;;39.73;25.33;;;0.80;99.90;;;;;;2610898;54;20382;-69
2023/01/21 20:34:42;;;;;;;40.23;26.07;;;0.80;99.90;;;;;;2611964;54;20462;-69
2023/01/21 20:40:29;;;;;;;64.30;39.40;;;0.80;99.90;;;;;;2610540;54;20134;-69
2023/01/21 20:46:23;;;;;;;53.67;32.13;;;0.80;99.90;;;;;;2610486;54;20138;-69
2023/01/21 20:52:11;;;;;;;70.27;37.00;;;0.90;99.90;;;;;;2610917;54;20367;-68
2023/01/21 20:57:58;;;;;;;48.03;32.30;;;1.00;99.90;;;;;;2610457;54;20246;-72
2023/01/21 21:00:43;;;;;;;43.97;27.83;;;1.00;99.90;;;;;;2609808;54;20416;-71
2023/01/21 21:03:09;;;;;;;55.87;35.67;;;1.10;99.90;;;;;;2609500;54;20192;-70
2023/01/21 21:08:56;;;;;;;46.47;28.77;;;1.10;99.90;;;;;;2611018;54;21152;-69
2023/01/21 21:14:44;;;;;;;59.80;37.90;;;1.20;99.90;;;;;;2609901;54;20214;-69
2023/01/21 21:20:35;;;;;;;60.73;35.23;;;1.20;99.90;;;;;;2611582;54;20148;-69
2023/01/21 21:26:25;;;;;;;46.80;28.67;;;1.20;99.90;;;;;;2612221;54;20384;-69
2023/01/21 21:32:13;;;;;;;36.67;24.07;;;1.20;99.90;;;;;;2612849;54;20370;-68
2023/01/21 21:38:12;;;;;;;40.30;25.17;;;1.20;99.90;;;;;;2612361;54;20242;-70
2023/01/21 21:43:59;;;;;;;34.90;25.10;;;1.10;99.90;;;;;;2613650;46;20890;-69
2023/01/21 21:49:47;;;;;;;37.77;23.57;;;1.20;99.90;;;;;;2611977;54;20147;-69
2023/01/21 21:55:35;;;;;;;49.83;31.00;;;1.20;99.90;;;;;;2613362;54;20131;-68
2023/01/21 22:05:12;;;;;;;55.67;29.40;;;1.20;99.90;;;;;;2612788;39;21109;-71
2023/01/21 22:11:03;;;;;;;33.50;23.53;;;1.00;99.90;;;;;;2612516;54;20416;-68
2023/01/21 22:16:52;;;;;;;32.07;21.10;;;0.80;99.90;;;;;;2613380;54;20467;-70
2023/01/21 22:22:41;;;;;;;36.03;20.20;;;0.70;99.90;;;;;;2613356;54;20367;-69
2023/01/21 22:28:28;;;;;;;33.70;21.50;;;0.40;99.90;;;;;;2611735;54;20386;-69
2023/01/21 22:34:16;;;;;;;37.50;22.17;;;0.40;99.90;;;;;;2611739;54;20154;-72
2023/01/21 22:40:07;;;;;;;29.87;20.40;;;0.20;99.90;;;;;;2612072;54;20161;-71
2023/01/21 22:45:56;;;;;;;33.30;19.07;;;0.20;99.90;;;;;;2609882;54;20376;-71
2023/01/21 22:51:47;;;;;;;28.10;19.90;;;0.10;99.90;;;;;;2612592;54;20419;-70
2023/01/21 22:54:50;;;;;;;33.67;19.33;;;0.20;99.90;;;;;;2612470;54;20428;-68
2023/01/21 22:57:18;;;;;;;28.83;20.67;;;0.20;99.90;;;;;;2611750;54;20442;-70
2023/01/21 23:00:41;;;;;;;36.83;22.03;;;0.30;99.90;;;;;;2612317;54;20399;-70
2023/01/21 23:03:09;;;;;;;40.00;22.77;;;0.40;99.90;;;;;;2611573;54;20428;-69
2023/01/21 23:08:57;;;;;;;38.90;23.33;;;0.60;99.90;;;;;;2612044;54;20853;-70
2023/01/21 23:14:45;;;;;;;34.27;23.10;;;0.80;99.90;;;;;;2612572;54;20688;-68
2023/01/21 23:20:35;;;;;;;26.93;18.43;;;0.80;99.90;;;;;;2612878;54;20426;-70
2023/01/21 23:26:23;;;;;;;35.77;23.40;;;1.00;99.90;;;;;;2612079;54;20395;-68
2023/01/21 23:32:10;;;;;;;32.67;21.20;;;1.00;99.90;;;;;;2612128;54;20461;-69
2023/01/21 23:37:58;;;;;;;36.53;21.40;;;1.10;99.90;;;;;;2613652;39;20473;-71
2023/01/21 23:43:49;;;;;;;31.67;21.07;;;1.10;99.90;;;;;;2611774;54;20130;-69
2023/01/21 23:49:36;;;;;;;32.77;22.50;;;1.10;99.90;;;;;;2610642;54;20410;-72
2023/01/21 23:55:24;;;;;;;31.53;19.60;;;1.10;99.90;;;;;;2612231;54;20130;-70
